Estación Meteorológica Peña el Pijo (Robertgarden) [ 03/23/19 13:05:37 CET ]

Fecha Hora Presion(HPa) Temp (°C) Humedad % Rocio (°C) Viento ( m/s) Direccion Lluvia 1Hora(mm) Lluvia 24H(mm) LLuvia Total(mm)
2019-Mar-06 01:01:29 1005.200 7.2 75 3.0         183.37
2019-Mar-06 02:01:47 1004.200 7.2 76 3.2         183.37
2019-Mar-06 03:01:42 1003.600 6.5 77 2.7         183.37
2019-Mar-06 04:01:39 1002.600 5.7 79 2.3         183.37
2019-Mar-06 05:01:44 1002.100 5.4 81 2.4         183.37
2019-Mar-06 06:01:43 1001.500 5.6 81 2.6         183.37
2019-Mar-06 07:01:22 1000.800 7.8 70 2.7         183.37
2019-Mar-06 08:01:21 1000.500 7.9 60 0.5         183.37
2019-Mar-06 09:02:05 1000.300 12.9 36 -1.9         183.37
2019-Mar-06 10:01:32 1000.000 15.5 29 -2.5         183.37
2019-Mar-06 11:02:03 999.700 16.6 25 -3.7         183.37
2019-Mar-06 12:02:00 999.500 17.3 23 -4.2 0.8 NNE     183.37
2019-Mar-06 13:01:50 999.000 18.6 23 -3.2 1.0 N     183.37
2019-Mar-06 14:01:47 998.600 18.4 29 0.0         183.37
2019-Mar-06 15:01:43 998.100 18.1 34 1.9 3.7 WNW     183.37
2019-Mar-06 16:01:51 998.800 13.0 58 4.9 1.8 NW     183.37
2019-Mar-06 17:01:46 999.000 10.8 69 5.4 4.3 WNW 0.51 0.51 183.89
2019-Mar-06 18:01:37 999.800 9.9 71 4.9       0.51 183.89
2019-Mar-06 19:01:44 1000.200 8.5 75 4.3       0.51 183.89
2019-Mar-06 20:01:50 1001.600 7.9 77 4.1       0.51 183.89
2019-Mar-06 21:01:49 1002.500 7.3 77 3.5     0.51 1.03 184.40
2019-Mar-06 22:02:01 1003.400 6.6 78 3.0       1.03 184.40
2019-Mar-06 23:01:39 1004.000 5.9 75 1.8       1.03 184.40

Temperatura Máxima:18°    Temperatura Mínima:
Presión Máxima:1005.200 Hpa    Presión Mínima:998.100 Hpa


Volver